Portada
METAR-TAF:

METAR-TAF

Aeroports :

San Juan de Pasto, Colòmbia

latitud: 01-25N, longitud: 077-16W, altitud: 1826 m

Observació

L'informe es va fer fa 13 hores i 43 minuts, a les 19:00 UTC
Vent 13 kt del Est/Sud-Est amb ràfegues de 23 kt
Temperatura 26°C
Humitat 30%
Pressió 1020 hPa
Visibilitat 10 km o més
Escasses núvols a una alçada de 3000 ft

METAR: SKPS 021900Z 12013G23KT 9999 FEW030 26/07 A3012

Hora: 03:43 (08:43 UTC)


TAF: manca

Observacions i pronòstics meteorològics de més de 4000 aeroports (METAR i TAF).

Les estacions disponibles són els punts grocs i vermells al mapa.

Posi el ratolí al punt desitjat per veure el nom de l'estació.

Feu clic per veure les observacions i els pronòstics meteorològics.

Per canviar el mapa: feu clic els botons verds amb una creu de color negre per apropar; al botó verd amb un guió per allunyar la imatge; o en les fletxes verdes per a mapes adjacents.


METAR-TAF: